Aviation Digital Data Service (ADDS)

Output produced by METARs form (0220 UTC 22 February 2019)
found at http://www.aviationweather.gov/metar/data/
 
METAR text: KEYW 220153Z 10015KT 10SM FEW019 26/22 A3009 RMK AO2 SLP190 T02610217
Conditions at: KEYW (KEY WEST , FL, US) observed 0153 UTC 22 February 2019
Temperature: 26.1°C (79°F)
Dewpoint: 21.7°C (71°F) [RH = 77%]
Pressure (altimeter): 30.09 inches Hg (1019.0 mb)
[Sea-level pressure: 1019.0 mb]
Winds: from the E (100 degrees) at 17 MPH (15 knots; 7.7 m/s)
Visibility: 10 or more miles (16+ km)
Ceiling: at least 12,000 feet AGL
Clouds: few clouds at 1900 feet AGL
Weather: no significant weather observed at this time

METAR text: KEYW 220053Z 09013G19KT 10SM FEW019 26/22 A3007 RMK AO2 SLP182 T02610217
Conditions at: KEYW (KEY WEST , FL, US) observed 0053 UTC 22 February 2019
Temperature: 26.1°C (79°F)
Dewpoint: 21.7°C (71°F) [RH = 77%]
Pressure (altimeter): 30.07 inches Hg (1018.4 mb)
[Sea-level pressure: 1018.2 mb]
Winds: from the E (90 degrees) at 15 MPH (13 knots; 6.7 m/s)
gusting to 22 MPH (19 knots; 9.8 m/s)
Visibility: 10 or more miles (16+ km)
Ceiling: at least 12,000 feet AGL
Clouds: few clouds at 1900 feet AGL
Weather: no significant weather observed at this time

METAR text: KEYW 212353Z 10012KT 10SM CLR 26/22 A3006 RMK AO2 SLP178 T02610217 10289 20261 53004
Conditions at: KEYW (KEY WEST , FL, US) observed 2353 UTC 21 February 2019
Temperature: 26.1°C (79°F)
Dewpoint: 21.7°C (71°F) [RH = 77%]
Pressure (altimeter): 30.06 inches Hg (1018.0 mb)
[Sea-level pressure: 1017.8 mb]
Winds: from the E (100 degrees) at 14 MPH (12 knots; 6.2 m/s)
Visibility: 10 or more miles (16+ km)
Ceiling: at least 12,000 feet AGL
Clouds: sky clear below 12,000 feet AGL
Weather: no significant weather observed at this time

METAR text: KEYW 212253Z AUTO 10010KT 10SM CLR 27/22 A3005 RMK AO2 SLP176 T02720217
Conditions at: KEYW (KEY WEST , FL, US) observed 2253 UTC 21 February 2019
Temperature: 27.2°C (81°F)
Dewpoint: 21.7°C (71°F) [RH = 72%]
Pressure (altimeter): 30.05 inches Hg (1017.7 mb)
[Sea-level pressure: 1017.6 mb]
Winds: from the E (100 degrees) at 12 MPH (10 knots; 5.1 m/s)
Visibility: 10 or more miles (16+ km)
Ceiling: at least 12,000 feet AGL
Clouds: sky clear below 12,000 feet AGL
Weather: automated observation with no human augmentation;
there may or may not be significant weather present at this time

METAR text: KEYW 212153Z AUTO 12012KT 10SM CLR 28/22 A3005 RMK AO2 SLP176 T02780217
Conditions at: KEYW (KEY WEST , FL, US) observed 2153 UTC 21 February 2019
Temperature: 27.8°C (82°F)
Dewpoint: 21.7°C (71°F) [RH = 69%]
Pressure (altimeter): 30.05 inches Hg (1017.7 mb)
[Sea-level pressure: 1017.6 mb]
Winds: from the ESE (120 degrees) at 14 MPH (12 knots; 6.2 m/s)
Visibility: 10 or more miles (16+ km)
Ceiling: at least 12,000 feet AGL
Clouds: sky clear below 12,000 feet AGL
Weather: automated observation with no human augmentation;
there may or may not be significant weather present at this time

METAR text: KEYW 212053Z AUTO 12012KT 10SM CLR 28/22 A3005 RMK AO2 SLP174 T02830222 56011
Conditions at: KEYW (KEY WEST , FL, US) observed 2053 UTC 21 February 2019
Temperature: 28.3°C (83°F)
Dewpoint: 22.2°C (72°F) [RH = 70%]
Pressure (altimeter): 30.05 inches Hg (1017.7 mb)
[Sea-level pressure: 1017.4 mb]
Winds: from the ESE (120 degrees) at 14 MPH (12 knots; 6.2 m/s)
Visibility: 10 or more miles (16+ km)
Ceiling: at least 12,000 feet AGL
Clouds: sky clear below 12,000 feet AGL
Weather: automated observation with no human augmentation;
there may or may not be significant weather present at this time

METAR text: KEYW 211953Z 13014KT 10SM FEW025 28/23 A3005 RMK AO2 SLP177 T02830228
Conditions at: KEYW (KEY WEST , FL, US) observed 1953 UTC 21 February 2019
Temperature: 28.3°C (83°F)
Dewpoint: 22.8°C (73°F) [RH = 72%]
Pressure (altimeter): 30.05 inches Hg (1017.7 mb)
[Sea-level pressure: 1017.7 mb]
Winds: from the SE (130 degrees) at 16 MPH (14 knots; 7.2 m/s)
Visibility: 10 or more miles (16+ km)
Ceiling: at least 12,000 feet AGL
Clouds: few clouds at 2500 feet AGL
Weather: no significant weather observed at this time

METAR text: KEYW 211853Z 12013G20KT 10SM CLR 28/23 A3006 RMK AO2 SLP178 T02830233
Conditions at: KEYW (KEY WEST , FL, US) observed 1853 UTC 21 February 2019
Temperature: 28.3°C (83°F)
Dewpoint: 23.3°C (74°F) [RH = 74%]
Pressure (altimeter): 30.06 inches Hg (1018.0 mb)
[Sea-level pressure: 1017.8 mb]
Winds: from the ESE (120 degrees) at 15 MPH (13 knots; 6.7 m/s)
gusting to 23 MPH (20 knots; 10.3 m/s)
Visibility: 10 or more miles (16+ km)
Ceiling: at least 12,000 feet AGL
Clouds: sky clear below 12,000 feet AGL
Weather: no significant weather observed at this time

METAR text: KEYW 211753Z 12017KT 10SM FEW022 28/23 A3008 RMK AO2 SLP185 T02830228 10289 20261 58013
Conditions at: KEYW (KEY WEST , FL, US) observed 1753 UTC 21 February 2019
Temperature: 28.3°C (83°F)
Dewpoint: 22.8°C (73°F) [RH = 72%]
Pressure (altimeter): 30.08 inches Hg (1018.7 mb)
[Sea-level pressure: 1018.5 mb]
Winds: from the ESE (120 degrees) at 20 MPH (17 knots; 8.7 m/s)
Visibility: 10 or more miles (16+ km)
Ceiling: at least 12,000 feet AGL
Clouds: few clouds at 2200 feet AGL
Weather: no significant weather observed at this time

METAR text: KEYW 211653Z 12014KT 10SM CLR 28/23 A3011 RMK AO2 SLP194 T02830228
Conditions at: KEYW (KEY WEST , FL, US) observed 1653 UTC 21 February 2019
Temperature: 28.3°C (83°F)
Dewpoint: 22.8°C (73°F) [RH = 72%]
Pressure (altimeter): 30.11 inches Hg (1019.7 mb)
[Sea-level pressure: 1019.4 mb]
Winds: from the ESE (120 degrees) at 16 MPH (14 knots; 7.2 m/s)
Visibility: 10 or more miles (16+ km)
Ceiling: at least 12,000 feet AGL
Clouds: sky clear below 12,000 feet AGL
Weather: no significant weather observed at this time

METAR text: KEYW 211553Z 13014KT 10SM FEW025 28/23 A3012 RMK AO2 SLP199 T02830228
Conditions at: KEYW (KEY WEST , FL, US) observed 1553 UTC 21 February 2019
Temperature: 28.3°C (83°F)
Dewpoint: 22.8°C (73°F) [RH = 72%]
Pressure (altimeter): 30.12 inches Hg (1020.1 mb)
[Sea-level pressure: 1019.9 mb]
Winds: from the SE (130 degrees) at 16 MPH (14 knots; 7.2 m/s)
Visibility: 10 or more miles (16+ km)
Ceiling: at least 12,000 feet AGL
Clouds: few clouds at 2500 feet AGL
Weather: no significant weather observed at this time

METAR text: KEYW 211453Z 13013KT 10SM FEW022 27/23 A3012 RMK AO2 SLP198 T02720228 53018
Conditions at: KEYW (KEY WEST , FL, US) observed 1453 UTC 21 February 2019
Temperature: 27.2°C (81°F)
Dewpoint: 22.8°C (73°F) [RH = 77%]
Pressure (altimeter): 30.12 inches Hg (1020.1 mb)
[Sea-level pressure: 1019.8 mb]
Winds: from the SE (130 degrees) at 15 MPH (13 knots; 6.7 m/s)
Visibility: 10 or more miles (16+ km)
Ceiling: at least 12,000 feet AGL
Clouds: few clouds at 2200 feet AGL
Weather: no significant weather observed at this time

METAR text: KEYW 211353Z 12013KT 10SM FEW023 27/23 A3010 RMK AO2 SLP192 T02720228
Conditions at: KEYW (KEY WEST , FL, US) observed 1353 UTC 21 February 2019
Temperature: 27.2°C (81°F)
Dewpoint: 22.8°C (73°F) [RH = 77%]
Pressure (altimeter): 30.10 inches Hg (1019.4 mb)
[Sea-level pressure: 1019.2 mb]
Winds: from the ESE (120 degrees) at 15 MPH (13 knots; 6.7 m/s)
Visibility: 10 or more miles (16+ km)
Ceiling: at least 12,000 feet AGL
Clouds: few clouds at 2300 feet AGL
Weather: no significant weather observed at this time

METAR text: KEYW 211253Z 13013KT 10SM FEW020 26/22 A3008 RMK AO2 SLP186 T02610222
Conditions at: KEYW (KEY WEST , FL, US) observed 1253 UTC 21 February 2019
Temperature: 26.1°C (79°F)
Dewpoint: 22.2°C (72°F) [RH = 79%]
Pressure (altimeter): 30.08 inches Hg (1018.7 mb)
[Sea-level pressure: 1018.6 mb]
Winds: from the SE (130 degrees) at 15 MPH (13 knots; 6.7 m/s)
Visibility: 10 or more miles (16+ km)
Ceiling: at least 12,000 feet AGL
Clouds: few clouds at 2000 feet AGL
Weather: no significant weather observed at this time

METAR text: KEYW 211153Z 13013KT 10SM BKN090 26/23 A3006 RMK AO2 SLP180 70001 T02610228 10261 20256 53007
Conditions at: KEYW (KEY WEST , FL, US) observed 1153 UTC 21 February 2019
Temperature: 26.1°C (79°F)
Dewpoint: 22.8°C (73°F) [RH = 82%]
Pressure (altimeter): 30.06 inches Hg (1018.0 mb)
[Sea-level pressure: 1018.0 mb]
Winds: from the SE (130 degrees) at 15 MPH (13 knots; 6.7 m/s)
Visibility: 10 or more miles (16+ km)
Ceiling: 9000 feet AGL
Clouds: broken clouds at 9000 feet AGL
Weather: no significant weather observed at this time

METAR text: KEYW 211053Z AUTO 13012KT 10SM CLR 26/22 A3005 RMK AO2 SLP176 T02610222
Conditions at: KEYW (KEY WEST , FL, US) observed 1053 UTC 21 February 2019
Temperature: 26.1°C (79°F)
Dewpoint: 22.2°C (72°F) [RH = 79%]
Pressure (altimeter): 30.05 inches Hg (1017.7 mb)
[Sea-level pressure: 1017.6 mb]
Winds: from the SE (130 degrees) at 14 MPH (12 knots; 6.2 m/s)
Visibility: 10 or more miles (16+ km)
Ceiling: at least 12,000 feet AGL
Clouds: sky clear below 12,000 feet AGL
Weather: automated observation with no human augmentation;
there may or may not be significant weather present at this time

METAR text: KEYW 210953Z AUTO 13009KT 10SM CLR 26/22 A3004 RMK AO2 SLP173 T02560222
Conditions at: KEYW (KEY WEST , FL, US) observed 0953 UTC 21 February 2019
Temperature: 25.6°C (78°F)
Dewpoint: 22.2°C (72°F) [RH = 82%]
Pressure (altimeter): 30.04 inches Hg (1017.4 mb)
[Sea-level pressure: 1017.3 mb]
Winds: from the SE (130 degrees) at 10 MPH (9 knots; 4.6 m/s)
Visibility: 10 or more miles (16+ km)
Ceiling: at least 12,000 feet AGL
Clouds: sky clear below 12,000 feet AGL
Weather: automated observation with no human augmentation;
there may or may not be significant weather present at this time

METAR text: KEYW 210853Z AUTO 13011KT 10SM CLR 26/22 A3004 RMK AO2 SLP173 T02610222 58011
Conditions at: KEYW (KEY WEST , FL, US) observed 0853 UTC 21 February 2019
Temperature: 26.1°C (79°F)
Dewpoint: 22.2°C (72°F) [RH = 79%]
Pressure (altimeter): 30.04 inches Hg (1017.4 mb)
[Sea-level pressure: 1017.3 mb]
Winds: from the SE (130 degrees) at 13 MPH (11 knots; 5.7 m/s)
Visibility: 10 or more miles (16+ km)
Ceiling: at least 12,000 feet AGL
Clouds: sky clear below 12,000 feet AGL
Weather: automated observation with no human augmentation;
there may or may not be significant weather present at this time

METAR text: KEYW 210753Z AUTO 13014KT 10SM CLR 26/22 A3006 RMK AO2 SLP178 T02610222
Conditions at: KEYW (KEY WEST , FL, US) observed 0753 UTC 21 February 2019
Temperature: 26.1°C (79°F)
Dewpoint: 22.2°C (72°F) [RH = 79%]
Pressure (altimeter): 30.06 inches Hg (1018.0 mb)
[Sea-level pressure: 1017.8 mb]
Winds: from the SE (130 degrees) at 16 MPH (14 knots; 7.2 m/s)
Visibility: 10 or more miles (16+ km)
Ceiling: at least 12,000 feet AGL
Clouds: sky clear below 12,000 feet AGL
Weather: automated observation with no human augmentation;
there may or may not be significant weather present at this time

METAR text: KEYW 210653Z AUTO 13013KT 10SM CLR 26/22 A3007 RMK AO2 SLP181 T02610222
Conditions at: KEYW (KEY WEST , FL, US) observed 0653 UTC 21 February 2019
Temperature: 26.1°C (79°F)
Dewpoint: 22.2°C (72°F) [RH = 79%]
Pressure (altimeter): 30.07 inches Hg (1018.4 mb)
[Sea-level pressure: 1018.1 mb]
Winds: from the SE (130 degrees) at 15 MPH (13 knots; 6.7 m/s)
Visibility: 10 or more miles (16+ km)
Ceiling: at least 12,000 feet AGL
Clouds: sky clear below 12,000 feet AGL
Weather: automated observation with no human augmentation;
there may or may not be significant weather present at this time

METAR text: KEYW 210553Z AUTO 12013KT 10SM SCT018 SCT026 BKN070 26/23 A3008 RMK AO2 SLP184 T02610228 10261 20256 50001
Conditions at: KEYW (KEY WEST , FL, US) observed 0553 UTC 21 February 2019
Temperature: 26.1°C (79°F)
Dewpoint: 22.8°C (73°F) [RH = 82%]
Pressure (altimeter): 30.08 inches Hg (1018.7 mb)
[Sea-level pressure: 1018.4 mb]
Winds: from the ESE (120 degrees) at 15 MPH (13 knots; 6.7 m/s)
Visibility: 10 or more miles (16+ km)
Ceiling: 7000 feet AGL
Clouds: scattered clouds at 1800 feet AGL
scattered clouds at 2600 feet AGL
broken clouds at 7000 feet AGL
Weather: automated observation with no human augmentation;
there may or may not be significant weather present at this time

METAR text: KEYW 210453Z AUTO 12013KT 10SM CLR 26/22 A3008 RMK AO2 SLP185 T02610222 402830244
Conditions at: KEYW (KEY WEST , FL, US) observed 0453 UTC 21 February 2019
Temperature: 26.1°C (79°F)
Dewpoint: 22.2°C (72°F) [RH = 79%]
Pressure (altimeter): 30.08 inches Hg (1018.7 mb)
[Sea-level pressure: 1018.5 mb]
Winds: from the ESE (120 degrees) at 15 MPH (13 knots; 6.7 m/s)
Visibility: 10 or more miles (16+ km)
Ceiling: at least 12,000 feet AGL
Clouds: sky clear below 12,000 feet AGL
Weather: automated observation with no human augmentation;
there may or may not be significant weather present at this time

METAR text: KEYW 210353Z AUTO 12013KT 10SM FEW022 26/22 A3009 RMK AO2 SLP187 T02610217
Conditions at: KEYW (KEY WEST , FL, US) observed 0353 UTC 21 February 2019
Temperature: 26.1°C (79°F)
Dewpoint: 21.7°C (71°F) [RH = 77%]
Pressure (altimeter): 30.09 inches Hg (1019.0 mb)
[Sea-level pressure: 1018.7 mb]
Winds: from the ESE (120 degrees) at 15 MPH (13 knots; 6.7 m/s)
Visibility: 10 or more miles (16+ km)
Ceiling: at least 12,000 feet AGL
Clouds: few clouds at 2200 feet AGL
Weather: automated observation with no human augmentation;
there may or may not be significant weather present at this time

METAR text: KEYW 210253Z AUTO 11017G21KT 10SM FEW021 26/21 A3007 RMK AO2 SLP183 T02610211 51013
Conditions at: KEYW (KEY WEST , FL, US) observed 0253 UTC 21 February 2019
Temperature: 26.1°C (79°F)
Dewpoint: 21.1°C (70°F) [RH = 74%]
Pressure (altimeter): 30.07 inches Hg (1018.4 mb)
[Sea-level pressure: 1018.3 mb]
Winds: from the ESE (110 degrees) at 20 MPH (17 knots; 8.7 m/s)
gusting to 24 MPH (21 knots; 10.8 m/s)
Visibility: 10 or more miles (16+ km)
Ceiling: at least 12,000 feet AGL
Clouds: few clouds at 2100 feet AGL
Weather: automated observation with no human augmentation;
there may or may not be significant weather present at this time

METAR text: KEYW 210153Z 11016KT 10SM FEW023 26/21 A3006 RMK AO2 SLP180 T02610211
Conditions at: KEYW (KEY WEST , FL, US) observed 0153 UTC 21 February 2019
Temperature: 26.1°C (79°F)
Dewpoint: 21.1°C (70°F) [RH = 74%]
Pressure (altimeter): 30.06 inches Hg (1018.0 mb)
[Sea-level pressure: 1018.0 mb]
Winds: from the ESE (110 degrees) at 18 MPH (16 knots; 8.2 m/s)
Visibility: 10 or more miles (16+ km)
Ceiling: at least 12,000 feet AGL
Clouds: few clouds at 2300 feet AGL
Weather: no significant weather observed at this time

METAR text: KEYW 210053Z 10015KT 10SM FEW021 26/21 A3005 RMK AO2 SLP174 T02610211
Conditions at: KEYW (KEY WEST , FL, US) observed 0053 UTC 21 February 2019
Temperature: 26.1°C (79°F)
Dewpoint: 21.1°C (70°F) [RH = 74%]
Pressure (altimeter): 30.05 inches Hg (1017.7 mb)
[Sea-level pressure: 1017.4 mb]
Winds: from the E (100 degrees) at 17 MPH (15 knots; 7.7 m/s)
Visibility: 10 or more miles (16+ km)
Ceiling: at least 12,000 feet AGL
Clouds: few clouds at 2100 feet AGL
Weather: no significant weather observed at this time

METAR text: KEYW 202353Z 11014KT 10SM CLR 26/22 A3003 RMK AO2 SLP170 T02610217 10283 20261 53002
Conditions at: KEYW (KEY WEST , FL, US) observed 2353 UTC 20 February 2019
Temperature: 26.1°C (79°F)
Dewpoint: 21.7°C (71°F) [RH = 77%]
Pressure (altimeter): 30.03 inches Hg (1017.0 mb)
[Sea-level pressure: 1017.0 mb]
Winds: from the ESE (110 degrees) at 16 MPH (14 knots; 7.2 m/s)
Visibility: 10 or more miles (16+ km)
Ceiling: at least 12,000 feet AGL
Clouds: sky clear below 12,000 feet AGL
Weather: no significant weather observed at this time

METAR text: KEYW 202253Z 12013KT 10SM CLR 27/21 A3003 RMK AO2 SLP168 T02670206
Conditions at: KEYW (KEY WEST , FL, US) observed 2253 UTC 20 February 2019
Temperature: 26.7°C (80°F)
Dewpoint: 20.6°C (69°F) [RH = 69%]
Pressure (altimeter): 30.03 inches Hg (1017.0 mb)
[Sea-level pressure: 1016.8 mb]
Winds: from the ESE (120 degrees) at 15 MPH (13 knots; 6.7 m/s)
Visibility: 10 or more miles (16+ km)
Ceiling: at least 12,000 feet AGL
Clouds: sky clear below 12,000 feet AGL
Weather: no significant weather observed at this time

METAR text: KEYW 202153Z 12015KT 10SM CLR 27/22 A3003 RMK AO2 SLP167 T02720222
Conditions at: KEYW (KEY WEST , FL, US) observed 2153 UTC 20 February 2019
Temperature: 27.2°C (81°F)
Dewpoint: 22.2°C (72°F) [RH = 74%]
Pressure (altimeter): 30.03 inches Hg (1017.0 mb)
[Sea-level pressure: 1016.7 mb]
Winds: from the ESE (120 degrees) at 17 MPH (15 knots; 7.7 m/s)
Visibility: 10 or more miles (16+ km)
Ceiling: at least 12,000 feet AGL
Clouds: sky clear below 12,000 feet AGL
Weather: no significant weather observed at this time

METAR text: KEYW 202053Z AUTO 11015KT 10SM CLR 28/22 A3003 RMK AO2 SLP168 T02780222 56016
Conditions at: KEYW (KEY WEST , FL, US) observed 2053 UTC 20 February 2019
Temperature: 27.8°C (82°F)
Dewpoint: 22.2°C (72°F) [RH = 72%]
Pressure (altimeter): 30.03 inches Hg (1017.0 mb)
[Sea-level pressure: 1016.8 mb]
Winds: from the ESE (110 degrees) at 17 MPH (15 knots; 7.7 m/s)
Visibility: 10 or more miles (16+ km)
Ceiling: at least 12,000 feet AGL
Clouds: sky clear below 12,000 feet AGL
Weather: automated observation with no human augmentation;
there may or may not be significant weather present at this time

METAR text: KEYW 201953Z 12014KT 10SM CLR 28/22 A3003 RMK AO2 SLP169 T02780222
Conditions at: KEYW (KEY WEST , FL, US) observed 1953 UTC 20 February 2019
Temperature: 27.8°C (82°F)
Dewpoint: 22.2°C (72°F) [RH = 72%]
Pressure (altimeter): 30.03 inches Hg (1017.0 mb)
[Sea-level pressure: 1016.9 mb]
Winds: from the ESE (120 degrees) at 16 MPH (14 knots; 7.2 m/s)
Visibility: 10 or more miles (16+ km)
Ceiling: at least 12,000 feet AGL
Clouds: sky clear below 12,000 feet AGL
Weather: no significant weather observed at this time

METAR text: KEYW 201853Z 12014KT 10SM FEW060 28/23 A3005 RMK AO2 SLP174 T02780228
Conditions at: KEYW (KEY WEST , FL, US) observed 1853 UTC 20 February 2019
Temperature: 27.8°C (82°F)
Dewpoint: 22.8°C (73°F) [RH = 74%]
Pressure (altimeter): 30.05 inches Hg (1017.7 mb)
[Sea-level pressure: 1017.4 mb]
Winds: from the ESE (120 degrees) at 16 MPH (14 knots; 7.2 m/s)
Visibility: 10 or more miles (16+ km)
Ceiling: at least 12,000 feet AGL
Clouds: few clouds at 6000 feet AGL
Weather: no significant weather observed at this time

METAR text: KEYW 201753Z 13013KT 10SM FEW060 28/22 A3008 RMK AO2 RAB24E38 SLP184 P0000 60001 T02780217 10278 20244 58009
Conditions at: KEYW (KEY WEST , FL, US) observed 1753 UTC 20 February 2019
Temperature: 27.8°C (82°F)
Dewpoint: 21.7°C (71°F) [RH = 69%]
Pressure (altimeter): 30.08 inches Hg (1018.7 mb)
[Sea-level pressure: 1018.4 mb]
Winds: from the SE (130 degrees) at 15 MPH (13 knots; 6.7 m/s)
Visibility: 10 or more miles (16+ km)
Ceiling: at least 12,000 feet AGL
Clouds: few clouds at 6000 feet AGL
Weather: no significant weather observed at this time

METAR text: KEYW 201653Z 13012KT 10SM BKN065 27/22 A3009 RMK AO2 RAB05E14 SLP190 P0000 T02720222
Conditions at: KEYW (KEY WEST , FL, US) observed 1653 UTC 20 February 2019
Temperature: 27.2°C (81°F)
Dewpoint: 22.2°C (72°F) [RH = 74%]
Pressure (altimeter): 30.09 inches Hg (1019.0 mb)
[Sea-level pressure: 1019.0 mb]
Winds: from the SE (130 degrees) at 14 MPH (12 knots; 6.2 m/s)
Visibility: 10 or more miles (16+ km)
Ceiling: 6500 feet AGL
Clouds: broken clouds at 6500 feet AGL
Weather: no significant weather observed at this time

METAR text: KEYW 201600Z 15016G21KT 10SM FEW024 SCT040 BKN050 26/22 A3010 RMK AO2 T02610222
Conditions at: KEYW (KEY WEST , FL, US) observed 1600 UTC 20 February 2019
Temperature: 26.1°C (79°F)
Dewpoint: 22.2°C (72°F) [RH = 79%]
Pressure (altimeter): 30.10 inches Hg (1019.4 mb)
Winds: from the SSE (150 degrees) at 18 MPH (16 knots; 8.2 m/s)
gusting to 24 MPH (21 knots; 10.8 m/s)
Visibility: 10 or more miles (16+ km)
Ceiling: 5000 feet AGL
Clouds: few clouds at 2400 feet AGL
scattered clouds at 4000 feet AGL
broken clouds at 5000 feet AGL
Weather: no significant weather observed at this time

METAR text: KEYW 201553Z 13014G19KT 10SM BKN020 BKN024 OVC060 26/23 A3010 RMK AO2 WSHFT 1524 RAE10B26E45 SLP193 P0001 T02610228
Conditions at: KEYW (KEY WEST , FL, US) observed 1553 UTC 20 February 2019
Temperature: 26.1°C (79°F)
Dewpoint: 22.8°C (73°F) [RH = 82%]
Pressure (altimeter): 30.10 inches Hg (1019.4 mb)
[Sea-level pressure: 1019.3 mb]
Winds: from the SE (130 degrees) at 16 MPH (14 knots; 7.2 m/s)
gusting to 22 MPH (19 knots; 9.8 m/s)
Visibility: 10 or more miles (16+ km)
Ceiling: 2000 feet AGL
Clouds: broken clouds at 2000 feet AGL
broken clouds at 2400 feet AGL
overcast cloud deck at 6000 feet AGL
Weather: no significant weather observed at this time

METAR text: KEYW 201544Z 13011KT 10SM -RA BKN020 BKN024 OVC060 26/23 A3010 RMK AO2 WSHFT 1524 RAE10B26 P0001 T02560228
Conditions at: KEYW (KEY WEST , FL, US) observed 1544 UTC 20 February 2019
Temperature: 25.6°C (78°F)
Dewpoint: 22.8°C (73°F) [RH = 85%]
Pressure (altimeter): 30.10 inches Hg (1019.4 mb)
Winds: from the SE (130 degrees) at 13 MPH (11 knots; 5.7 m/s)
Visibility: 10 or more miles (16+ km)
Ceiling: 2000 feet AGL
Clouds: broken clouds at 2000 feet AGL
broken clouds at 2400 feet AGL
overcast cloud deck at 6000 feet AGL
Weather: -RA  (light rain)

METAR text: KEYW 201453Z 18011KT 10SM -RA BKN020 BKN030 BKN047 25/21 A3010 RMK AO2 RAB31 SLP193 P0000 60000 T02500206 52013
Conditions at: KEYW (KEY WEST , FL, US) observed 1453 UTC 20 February 2019
Temperature: 25.0°C (77°F)
Dewpoint: 20.6°C (69°F) [RH = 77%]
Pressure (altimeter): 30.10 inches Hg (1019.4 mb)
[Sea-level pressure: 1019.3 mb]
Winds: from the S (180 degrees) at 13 MPH (11 knots; 5.7 m/s)
Visibility: 10 or more miles (16+ km)
Ceiling: 2000 feet AGL
Clouds: broken clouds at 2000 feet AGL
broken clouds at 3000 feet AGL
broken clouds at 4700 feet AGL
Weather: -RA  (light rain)

METAR text: KEYW 201426Z 17013KT 10SM BKN014 BKN022 BKN080 26/22 A3010 RMK AO2 T02560217
Conditions at: KEYW (KEY WEST , FL, US) observed 1426 UTC 20 February 2019
Temperature: 25.6°C (78°F)
Dewpoint: 21.7°C (71°F) [RH = 79%]
Pressure (altimeter): 30.10 inches Hg (1019.4 mb)
Winds: from the S (170 degrees) at 15 MPH (13 knots; 6.7 m/s)
Visibility: 10 or more miles (16+ km)
Ceiling: 1400 feet AGL
Clouds: broken clouds at 1400 feet AGL
broken clouds at 2200 feet AGL
broken clouds at 8000 feet AGL
Weather: no significant weather observed at this time

Forecast for: KEYW (KEY WEST , FL, US)
Text: KEYW 212342Z 2200/2224 12012KT P6SM FEW020
Forecast period: 0000 UTC 22 February 2019 to 0000 UTC 23 February 2019
Forecast type: FROM: standard forecast or significant change
Winds: from the ESE (120 degrees) at 14 MPH (12 knots; 6.2 m/s)
Visibility: 6 or more miles 10+ km)
Ceiling: at least 12,000 feet AGL
Clouds: few clouds at 2000 feet AGL
Weather: no significant weather forecast for this period